sensor_id;sensor_type;location;lat;lon;timestamp;P1;durP1;ratioP1;P2;durP2;ratioP2
60312;SDS011;46158;52.850;6.970;2023-07-02T00:02:10;3.63;;;1.95;;
60312;SDS011;46158;52.850;6.970;2023-07-02T00:04:36;2.47;;;1.92;;
60312;SDS011;46158;52.850;6.970;2023-07-02T00:07:03;3.22;;;2.00;;
60312;SDS011;46158;52.850;6.970;2023-07-02T00:09:30;2.80;;;1.90;;
60312;SDS011;46158;52.850;6.970;2023-07-02T00:11:59;3.47;;;2.03;;
60312;SDS011;46158;52.850;6.970;2023-07-02T00:14:25;4.25;;;2.15;;
60312;SDS011;46158;52.850;6.970;2023-07-02T00:16:51;3.70;;;2.10;;
60312;SDS011;46158;52.850;6.970;2023-07-02T00:19:17;5.78;;;2.20;;
60312;SDS011;46158;52.850;6.970;2023-07-02T00:21:43;3.00;;;1.98;;
60312;SDS011;46158;52.850;6.970;2023-07-02T00:24:13;3.80;;;2.00;;
60312;SDS011;46158;52.850;6.970;2023-07-02T00:26:41;2.60;;;2.10;;
60312;SDS011;46158;52.850;6.970;2023-07-02T00:29:08;3.63;;;2.00;;
60312;SDS011;46158;52.850;6.970;2023-07-02T00:31:37;3.90;;;2.13;;
60312;SDS011;46158;52.850;6.970;2023-07-02T00:34:06;3.50;;;2.03;;
60312;SDS011;46158;52.850;6.970;2023-07-02T00:36:33;3.42;;;2.10;;
60312;SDS011;46158;52.850;6.970;2023-07-02T00:38:59;3.65;;;1.98;;
60312;SDS011;46158;52.850;6.970;2023-07-02T00:41:26;2.78;;;2.08;;
60312;SDS011;46158;52.850;6.970;2023-07-02T00:43:53;2.60;;;1.95;;
60312;SDS011;46158;52.850;6.970;2023-07-02T00:46:22;2.90;;;2.00;;
60312;SDS011;46158;52.850;6.970;2023-07-02T00:48:51;2.25;;;2.00;;
60312;SDS011;46158;52.850;6.970;2023-07-02T00:51:23;2.42;;;1.95;;
60312;SDS011;46158;52.850;6.970;2023-07-02T00:53:50;3.90;;;2.10;;
60312;SDS011;46158;52.850;6.970;2023-07-02T00:56:17;4.13;;;2.10;;
60312;SDS011;46158;52.850;6.970;2023-07-02T00:58:47;3.30;;;1.85;;
60312;SDS011;46158;52.850;6.970;2023-07-02T01:01:22;2.67;;;1.98;;
60312;SDS011;46158;52.850;6.970;2023-07-02T01:03:51;3.40;;;2.03;;
60312;SDS011;46158;52.850;6.970;2023-07-02T01:06:31;3.50;;;2.10;;
60312;SDS011;46158;52.850;6.970;2023-07-02T01:08:59;3.72;;;2.10;;
60312;SDS011;46158;52.850;6.970;2023-07-02T01:11:37;2.40;;;1.90;;
60312;SDS011;46158;52.850;6.970;2023-07-02T01:14:13;3.58;;;2.00;;
60312;SDS011;46158;52.850;6.970;2023-07-02T01:16:52;3.67;;;2.03;;
60312;SDS011;46158;52.850;6.970;2023-07-02T01:22:24;3.83;;;2.13;;
60312;SDS011;46158;52.850;6.970;2023-07-02T01:24:54;4.47;;;2.10;;
60312;SDS011;46158;52.850;6.970;2023-07-02T01:27:21;2.78;;;2.00;;
60312;SDS011;46158;52.850;6.970;2023-07-02T01:29:51;3.60;;;2.08;;
60312;SDS011;46158;52.850;6.970;2023-07-02T01:32:18;3.20;;;2.20;;
60312;SDS011;46158;52.850;6.970;2023-07-02T01:34:59;3.90;;;2.15;;
60312;SDS011;46158;52.850;6.970;2023-07-02T01:37:29;4.25;;;2.00;;
60312;SDS011;46158;52.850;6.970;2023-07-02T01:40:02;3.30;;;1.98;;
60312;SDS011;46158;52.850;6.970;2023-07-02T01:42:32;5.25;;;2.25;;
60312;SDS011;46158;52.850;6.970;2023-07-02T01:44:58;1.80;;;1.70;;
60312;SDS011;46158;52.850;6.970;2023-07-02T01:47:27;2.72;;;2.00;;
60312;SDS011;46158;52.850;6.970;2023-07-02T01:49:54;3.92;;;2.10;;
60312;SDS011;46158;52.850;6.970;2023-07-02T01:52:19;5.75;;;2.17;;
60312;SDS011;46158;52.850;6.970;2023-07-02T01:54:45;3.50;;;2.10;;
60312;SDS011;46158;52.850;6.970;2023-07-02T01:57:12;2.00;;;1.80;;
60312;SDS011;46158;52.850;6.970;2023-07-02T01:59:44;3.72;;;2.15;;
60312;SDS011;46158;52.850;6.970;2023-07-02T02:02:10;3.03;;;2.28;;
60312;SDS011;46158;52.850;6.970;2023-07-02T02:04:36;3.17;;;2.13;;
60312;SDS011;46158;52.850;6.970;2023-07-02T02:07:11;2.75;;;2.05;;
60312;SDS011;46158;52.850;6.970;2023-07-02T02:09:40;2.60;;;2.10;;
60312;SDS011;46158;52.850;6.970;2023-07-02T02:12:06;3.13;;;2.13;;
60312;SDS011;46158;52.850;6.970;2023-07-02T02:14:36;3.53;;;2.20;;
60312;SDS011;46158;52.850;6.970;2023-07-02T02:17:02;2.38;;;1.98;;
60312;SDS011;46158;52.850;6.970;2023-07-02T02:19:28;2.95;;;2.22;;
60312;SDS011;46158;52.850;6.970;2023-07-02T02:21:56;4.72;;;2.20;;
60312;SDS011;46158;52.850;6.970;2023-07-02T02:24:30;3.22;;;2.17;;
60312;SDS011;46158;52.850;6.970;2023-07-02T02:26:56;3.33;;;2.20;;
60312;SDS011;46158;52.850;6.970;2023-07-02T02:29:22;4.05;;;2.10;;
60312;SDS011;46158;52.850;6.970;2023-07-02T02:31:48;4.47;;;2.20;;
60312;SDS011;46158;52.850;6.970;2023-07-02T02:34:14;3.83;;;2.30;;
60312;SDS011;46158;52.850;6.970;2023-07-02T02:36:40;3.15;;;2.10;;
60312;SDS011;46158;52.850;6.970;2023-07-02T02:39:06;4.10;;;2.28;;
60312;SDS011;46158;52.850;6.970;2023-07-02T02:41:35;2.58;;;2.00;;
60312;SDS011;46158;52.850;6.970;2023-07-02T02:44:01;4.35;;;2.28;;
60312;SDS011;46158;52.850;6.970;2023-07-02T02:46:36;2.70;;;2.05;;
60312;SDS011;46158;52.850;6.970;2023-07-02T02:49:02;4.85;;;2.42;;
60312;SDS011;46158;52.850;6.970;2023-07-02T02:51:28;2.95;;;2.10;;
60312;SDS011;46158;52.850;6.970;2023-07-02T02:53:55;4.10;;;2.35;;
60312;SDS011;46158;52.850;6.970;2023-07-02T02:56:21;3.00;;;2.20;;
60312;SDS011;46158;52.850;6.970;2023-07-02T02:58:48;5.53;;;2.40;;
60312;SDS011;46158;52.850;6.970;2023-07-02T03:01:14;4.65;;;2.40;;
60312;SDS011;46158;52.850;6.970;2023-07-02T03:03:40;3.92;;;2.30;;
60312;SDS011;46158;52.850;6.970;2023-07-02T03:06:13;4.45;;;2.38;;
60312;SDS011;46158;52.850;6.970;2023-07-02T03:08:42;3.87;;;2.27;;
60312;SDS011;46158;52.850;6.970;2023-07-02T03:11:08;4.15;;;2.30;;
60312;SDS011;46158;52.850;6.970;2023-07-02T03:13:35;3.17;;;2.20;;
60312;SDS011;46158;52.850;6.970;2023-07-02T03:16:01;4.45;;;2.20;;
60312;SDS011;46158;52.850;6.970;2023-07-02T03:18:26;4.13;;;2.20;;
60312;SDS011;46158;52.850;6.970;2023-07-02T03:20:53;4.70;;;2.35;;
60312;SDS011;46158;52.850;6.970;2023-07-02T03:23:28;5.07;;;2.58;;
60312;SDS011;46158;52.850;6.970;2023-07-02T03:25:54;3.90;;;2.47;;
60312;SDS011;46158;52.850;6.970;2023-07-02T03:28:19;3.85;;;2.28;;
60312;SDS011;46158;52.850;6.970;2023-07-02T03:30:45;6.18;;;2.45;;
60312;SDS011;46158;52.850;6.970;2023-07-02T03:33:11;4.22;;;2.22;;
60312;SDS011;46158;52.850;6.970;2023-07-02T03:35:37;3.63;;;2.35;;
60312;SDS011;46158;52.850;6.970;2023-07-02T03:38:06;4.80;;;2.40;;
60312;SDS011;46158;52.850;6.970;2023-07-02T03:40:32;5.20;;;2.40;;
60312;SDS011;46158;52.850;6.970;2023-07-02T03:42:58;6.43;;;2.70;;
60312;SDS011;46158;52.850;6.970;2023-07-02T03:45:27;4.90;;;2.60;;
60312;SDS011;46158;52.850;6.970;2023-07-02T03:47:53;7.28;;;2.70;;
60312;SDS011;46158;52.850;6.970;2023-07-02T03:50:19;5.40;;;2.60;;
60312;SDS011;46158;52.850;6.970;2023-07-02T03:52:47;5.25;;;2.70;;
60312;SDS011;46158;52.850;6.970;2023-07-02T03:55:14;6.07;;;2.72;;
60312;SDS011;46158;52.850;6.970;2023-07-02T03:57:42;6.05;;;2.75;;
60312;SDS011;46158;52.850;6.970;2023-07-02T04:00:10;5.97;;;2.50;;
60312;SDS011;46158;52.850;6.970;2023-07-02T04:02:36;5.75;;;2.55;;
60312;SDS011;46158;52.850;6.970;2023-07-02T04:05:02;5.25;;;2.40;;
60312;SDS011;46158;52.850;6.970;2023-07-02T04:07:37;4.30;;;2.50;;
60312;SDS011;46158;52.850;6.970;2023-07-02T04:10:03;8.10;;;2.80;;
60312;SDS011;46158;52.850;6.970;2023-07-02T04:12:30;6.32;;;2.80;;
60312;SDS011;46158;52.850;6.970;2023-07-02T04:14:56;4.65;;;2.50;;
60312;SDS011;46158;52.850;6.970;2023-07-02T04:17:22;6.88;;;2.70;;
60312;SDS011;46158;52.850;6.970;2023-07-02T04:19:48;5.93;;;2.55;;
60312;SDS011;46158;52.850;6.970;2023-07-02T04:22:14;5.50;;;2.63;;
60312;SDS011;46158;52.850;6.970;2023-07-02T04:24:40;6.63;;;2.63;;
60312;SDS011;46158;52.850;6.970;2023-07-02T04:27:06;8.30;;;2.95;;
60312;SDS011;46158;52.850;6.970;2023-07-02T04:29:32;5.80;;;2.60;;
60312;SDS011;46158;52.850;6.970;2023-07-02T04:31:58;8.55;;;2.88;;
60312;SDS011;46158;52.850;6.970;2023-07-02T04:34:24;6.15;;;2.65;;
60312;SDS011;46158;52.850;6.970;2023-07-02T04:36:52;6.40;;;2.78;;
60312;SDS011;46158;52.850;6.970;2023-07-02T04:39:19;6.95;;;2.85;;
60312;SDS011;46158;52.850;6.970;2023-07-02T04:41:48;7.10;;;2.87;;
60312;SDS011;46158;52.850;6.970;2023-07-02T04:44:17;8.13;;;2.85;;
60312;SDS011;46158;52.850;6.970;2023-07-02T04:46:43;7.68;;;2.88;;
60312;SDS011;46158;52.850;6.970;2023-07-02T04:49:09;7.10;;;3.00;;
60312;SDS011;46158;52.850;6.970;2023-07-02T04:51:38;6.80;;;2.78;;
60312;SDS011;46158;52.850;6.970;2023-07-02T04:54:08;8.25;;;2.88;;
60312;SDS011;46158;52.850;6.970;2023-07-02T04:56:33;7.38;;;2.80;;
60312;SDS011;46158;52.850;6.970;2023-07-02T04:58:59;9.45;;;2.95;;
60312;SDS011;46158;52.850;6.970;2023-07-02T05:01:27;9.20;;;3.20;;
60312;SDS011;46158;52.850;6.970;2023-07-02T05:03:53;7.57;;;3.08;;
60312;SDS011;46158;52.850;6.970;2023-07-02T05:06:19;8.45;;;2.90;;
60312;SDS011;46158;52.850;6.970;2023-07-02T05:08:45;7.93;;;3.17;;
60312;SDS011;46158;52.850;6.970;2023-07-02T05:11:11;8.95;;;3.25;;
60312;SDS011;46158;52.850;6.970;2023-07-02T05:13:36;9.40;;;3.25;;
60312;SDS011;46158;52.850;6.970;2023-07-02T05:16:02;8.18;;;3.20;;
60312;SDS011;46158;52.850;6.970;2023-07-02T05:18:29;8.55;;;2.92;;
60312;SDS011;46158;52.850;6.970;2023-07-02T05:20:56;7.93;;;3.00;;
60312;SDS011;46158;52.850;6.970;2023-07-02T05:23:22;8.57;;;3.33;;
60312;SDS011;46158;52.850;6.970;2023-07-02T05:25:47;7.20;;;3.03;;
60312;SDS011;46158;52.850;6.970;2023-07-02T05:28:13;10.45;;;3.53;;
60312;SDS011;46158;52.850;6.970;2023-07-02T05:30:42;10.52;;;3.15;;
60312;SDS011;46158;52.850;6.970;2023-07-02T05:33:18;9.35;;;3.13;;
60312;SDS011;46158;52.850;6.970;2023-07-02T05:35:45;12.50;;;3.47;;
60312;SDS011;46158;52.850;6.970;2023-07-02T05:38:11;10.70;;;3.25;;
60312;SDS011;46158;52.850;6.970;2023-07-02T05:40:37;9.48;;;3.20;;
60312;SDS011;46158;52.850;6.970;2023-07-02T05:43:02;9.50;;;3.30;;
60312;SDS011;46158;52.850;6.970;2023-07-02T05:45:28;10.80;;;3.33;;
60312;SDS011;46158;52.850;6.970;2023-07-02T05:47:54;8.80;;;3.10;;
60312;SDS011;46158;52.850;6.970;2023-07-02T05:50:20;9.52;;;3.00;;
60312;SDS011;46158;52.850;6.970;2023-07-02T05:52:48;8.20;;;3.50;;
60312;SDS011;46158;52.850;6.970;2023-07-02T05:55:14;10.32;;;3.40;;
60312;SDS011;46158;52.850;6.970;2023-07-02T05:57:40;8.98;;;3.25;;
60312;SDS011;46158;52.850;6.970;2023-07-02T06:00:06;8.70;;;3.15;;
60312;SDS011;46158;52.850;6.970;2023-07-02T06:02:32;9.75;;;3.30;;
60312;SDS011;46158;52.850;6.970;2023-07-02T06:04:59;9.30;;;3.63;;
60312;SDS011;46158;52.850;6.970;2023-07-02T06:07:29;9.80;;;3.35;;
60312;SDS011;46158;52.850;6.970;2023-07-02T06:09:56;10.57;;;3.58;;
60312;SDS011;46158;52.850;6.970;2023-07-02T06:12:23;10.05;;;3.25;;
60312;SDS011;46158;52.850;6.970;2023-07-02T06:14:49;9.85;;;3.28;;
60312;SDS011;46158;52.850;6.970;2023-07-02T06:17:15;10.60;;;3.38;;
60312;SDS011;46158;52.850;6.970;2023-07-02T06:19:41;18.48;;;4.88;;
60312;SDS011;46158;52.850;6.970;2023-07-02T06:22:13;17.55;;;4.93;;
60312;SDS011;46158;52.850;6.970;2023-07-02T06:24:52;20.90;;;6.40;;
60312;SDS011;46158;52.850;6.970;2023-07-02T06:27:23;24.55;;;6.57;;
60312;SDS011;46158;52.850;6.970;2023-07-02T06:29:52;22.30;;;5.93;;
60312;SDS011;46158;52.850;6.970;2023-07-02T06:32:18;21.02;;;6.22;;
60312;SDS011;46158;52.850;6.970;2023-07-02T06:34:48;23.70;;;6.45;;
60312;SDS011;46158;52.850;6.970;2023-07-02T06:39:43;21.48;;;6.28;;
60312;SDS011;46158;52.850;6.970;2023-07-02T06:42:09;21.38;;;5.85;;
60312;SDS011;46158;52.850;6.970;2023-07-02T06:44:43;22.38;;;6.88;;
60312;SDS011;46158;52.850;6.970;2023-07-02T06:47:09;28.83;;;7.70;;
60312;SDS011;46158;52.850;6.970;2023-07-02T06:49:35;21.02;;;6.15;;
60312;SDS011;46158;52.850;6.970;2023-07-02T06:52:04;21.13;;;6.20;;
60312;SDS011;46158;52.850;6.970;2023-07-02T06:54:40;23.38;;;6.60;;
60312;SDS011;46158;52.850;6.970;2023-07-02T06:57:06;20.50;;;5.70;;
60312;SDS011;46158;52.850;6.970;2023-07-02T06:59:33;19.23;;;5.22;;
60312;SDS011;46158;52.850;6.970;2023-07-02T07:01:59;18.58;;;5.72;;
60312;SDS011;46158;52.850;6.970;2023-07-02T07:04:26;21.33;;;5.68;;
60312;SDS011;46158;52.850;6.970;2023-07-02T07:06:53;21.75;;;5.50;;
60312;SDS011;46158;52.850;6.970;2023-07-02T07:09:22;20.35;;;5.30;;
60312;SDS011;46158;52.850;6.970;2023-07-02T07:12:03;21.58;;;5.70;;
60312;SDS011;46158;52.850;6.970;2023-07-02T07:14:50;23.90;;;6.78;;
60312;SDS011;46158;52.850;6.970;2023-07-02T07:17:16;21.63;;;7.00;;
60312;SDS011;46158;52.850;6.970;2023-07-02T07:19:46;22.17;;;6.87;;
60312;SDS011;46158;52.850;6.970;2023-07-02T07:22:12;24.15;;;6.88;;
60312;SDS011;46158;52.850;6.970;2023-07-02T07:24:45;23.45;;;6.72;;
60312;SDS011;46158;52.850;6.970;2023-07-02T07:27:13;19.23;;;5.32;;
60312;SDS011;46158;52.850;6.970;2023-07-02T07:29:40;19.75;;;5.65;;
60312;SDS011;46158;52.850;6.970;2023-07-02T07:32:10;22.50;;;5.80;;
60312;SDS011;46158;52.850;6.970;2023-07-02T07:34:40;21.92;;;6.07;;
60312;SDS011;46158;52.850;6.970;2023-07-02T07:37:06;21.75;;;5.55;;
60312;SDS011;46158;52.850;6.970;2023-07-02T07:39:51;23.55;;;6.18;;
60312;SDS011;46158;52.850;6.970;2023-07-02T07:42:26;19.75;;;5.70;;
60312;SDS011;46158;52.850;6.970;2023-07-02T07:44:56;18.17;;;5.03;;
60312;SDS011;46158;52.850;6.970;2023-07-02T07:47:22;23.23;;;6.60;;
60312;SDS011;46158;52.850;6.970;2023-07-02T07:49:49;22.27;;;6.25;;
60312;SDS011;46158;52.850;6.970;2023-07-02T07:52:23;22.00;;;6.93;;
60312;SDS011;46158;52.850;6.970;2023-07-02T07:54:49;22.50;;;6.85;;
60312;SDS011;46158;52.850;6.970;2023-07-02T07:57:19;22.30;;;7.07;;
60312;SDS011;46158;52.850;6.970;2023-07-02T07:59:49;21.63;;;6.20;;
60312;SDS011;46158;52.850;6.970;2023-07-02T08:02:29;24.02;;;7.05;;
60312;SDS011;46158;52.850;6.970;2023-07-02T08:04:55;22.00;;;6.07;;
60312;SDS011;46158;52.850;6.970;2023-07-02T08:07:21;20.55;;;5.93;;
60312;SDS011;46158;52.850;6.970;2023-07-02T08:10:10;23.17;;;6.45;;
60312;SDS011;46158;52.850;6.970;2023-07-02T08:15:18;22.40;;;6.33;;
60312;SDS011;46158;52.850;6.970;2023-07-02T08:17:44;19.42;;;5.47;;
60312;SDS011;46158;52.850;6.970;2023-07-02T08:20:11;18.83;;;5.72;;
60312;SDS011;46158;52.850;6.970;2023-07-02T08:22:43;21.50;;;6.10;;
60312;SDS011;46158;52.850;6.970;2023-07-02T08:25:12;21.50;;;6.35;;
60312;SDS011;46158;52.850;6.970;2023-07-02T08:27:41;21.83;;;5.95;;
60312;SDS011;46158;52.850;6.970;2023-07-02T08:30:07;21.33;;;6.03;;
60312;SDS011;46158;52.850;6.970;2023-07-02T08:32:34;20.83;;;5.55;;
60312;SDS011;46158;52.850;6.970;2023-07-02T08:34:59;20.05;;;5.25;;
60312;SDS011;46158;52.850;6.970;2023-07-02T08:37:28;20.67;;;5.75;;
60312;SDS011;46158;52.850;6.970;2023-07-02T08:40:04;18.60;;;5.38;;
60312;SDS011;46158;52.850;6.970;2023-07-02T08:42:44;19.02;;;5.15;;
60312;SDS011;46158;52.850;6.970;2023-07-02T08:48:26;18.40;;;4.72;;
60312;SDS011;46158;52.850;6.970;2023-07-02T08:50:57;20.27;;;4.93;;
60312;SDS011;46158;52.850;6.970;2023-07-02T08:53:25;20.30;;;4.65;;
60312;SDS011;46158;52.850;6.970;2023-07-02T08:56:04;19.13;;;5.15;;
60312;SDS011;46158;52.850;6.970;2023-07-02T08:58:30;18.83;;;5.20;;
60312;SDS011;46158;52.850;6.970;2023-07-02T09:01:14;19.23;;;4.32;;
60312;SDS011;46158;52.850;6.970;2023-07-02T09:03:59;17.67;;;4.38;;
60312;SDS011;46158;52.850;6.970;2023-07-02T09:09:12;20.90;;;4.47;;
60312;SDS011;46158;52.850;6.970;2023-07-02T09:11:58;15.07;;;3.92;;
60312;SDS011;46158;52.850;6.970;2023-07-02T09:14:33;14.88;;;3.65;;
60312;SDS011;46158;52.850;6.970;2023-07-02T09:17:07;17.60;;;4.10;;
60312;SDS011;46158;52.850;6.970;2023-07-02T09:19:49;13.82;;;3.58;;
60312;SDS011;46158;52.850;6.970;2023-07-02T09:23:10;13.00;;;3.40;;
60312;SDS011;46158;52.850;6.970;2023-07-02T09:25:37;14.20;;;3.45;;
60312;SDS011;46158;52.850;6.970;2023-07-02T09:28:21;15.23;;;3.55;;
60312;SDS011;46158;52.850;6.970;2023-07-02T09:30:55;14.15;;;3.80;;
60312;SDS011;46158;52.850;6.970;2023-07-02T09:33:28;16.85;;;4.30;;
60312;SDS011;46158;52.850;6.970;2023-07-02T09:36:03;17.70;;;4.10;;
60312;SDS011;46158;52.850;6.970;2023-07-02T09:38:33;15.38;;;3.72;;
60312;SDS011;46158;52.850;6.970;2023-07-02T09:41:00;14.52;;;3.90;;
60312;SDS011;46158;52.850;6.970;2023-07-02T09:43:26;13.77;;;3.88;;
60312;SDS011;46158;52.850;6.970;2023-07-02T09:45:52;16.52;;;3.80;;
60312;SDS011;46158;52.850;6.970;2023-07-02T09:48:19;19.42;;;4.20;;
60312;SDS011;46158;52.850;6.970;2023-07-02T09:50:50;15.95;;;4.00;;
60312;SDS011;46158;52.850;6.970;2023-07-02T09:53:17;14.68;;;3.80;;
60312;SDS011;46158;52.850;6.970;2023-07-02T09:55:42;17.40;;;3.97;;
60312;SDS011;46158;52.850;6.970;2023-07-02T09:58:09;16.35;;;3.88;;
60312;SDS011;46158;52.850;6.970;2023-07-02T10:00:37;15.73;;;4.00;;
60312;SDS011;46158;52.850;6.970;2023-07-02T10:03:06;18.92;;;4.13;;
60312;SDS011;46158;52.850;6.970;2023-07-02T10:05:35;18.13;;;4.22;;
60312;SDS011;46158;52.850;6.970;2023-07-02T10:08:16;14.88;;;4.00;;
60312;SDS011;46158;52.850;6.970;2023-07-02T10:10:52;17.27;;;4.40;;
60312;SDS011;46158;52.850;6.970;2023-07-02T10:13:32;17.42;;;3.80;;
60312;SDS011;46158;52.850;6.970;2023-07-02T10:16:07;20.30;;;4.13;;
60312;SDS011;46158;52.850;6.970;2023-07-02T10:18:33;13.23;;;3.85;;
60312;SDS011;46158;52.850;6.970;2023-07-02T10:20:59;18.63;;;4.25;;
60312;SDS011;46158;52.850;6.970;2023-07-02T10:23:34;16.27;;;4.15;;
60312;SDS011;46158;52.850;6.970;2023-07-02T10:28:57;17.40;;;3.83;;
60312;SDS011;46158;52.850;6.970;2023-07-02T10:31:23;17.27;;;4.32;;
60312;SDS011;46158;52.850;6.970;2023-07-02T10:33:52;14.45;;;4.00;;
60312;SDS011;46158;52.850;6.970;2023-07-02T10:36:22;18.67;;;4.50;;
60312;SDS011;46158;52.850;6.970;2023-07-02T10:38:51;15.95;;;4.22;;
60312;SDS011;46158;52.850;6.970;2023-07-02T10:41:29;16.42;;;4.10;;
60312;SDS011;46158;52.850;6.970;2023-07-02T10:44:06;15.48;;;3.90;;
60312;SDS011;46158;52.850;6.970;2023-07-02T10:46:48;17.10;;;4.22;;
60312;SDS011;46158;52.850;6.970;2023-07-02T10:49:18;17.13;;;4.20;;
60312;SDS011;46158;52.850;6.970;2023-07-02T10:52:04;17.73;;;4.20;;
60312;SDS011;46158;52.850;6.970;2023-07-02T10:54:51;16.77;;;4.30;;
60312;SDS011;46158;52.850;6.970;2023-07-02T10:57:20;13.55;;;3.70;;
60312;SDS011;46158;52.850;6.970;2023-07-02T11:00:06;17.17;;;4.28;;
60312;SDS011;46158;52.850;6.970;2023-07-02T11:02:36;13.70;;;3.75;;
60312;SDS011;46158;52.850;6.970;2023-07-02T11:05:04;15.40;;;3.78;;
60312;SDS011;46158;52.850;6.970;2023-07-02T11:07:38;15.02;;;4.00;;
60312;SDS011;46158;52.850;6.970;2023-07-02T11:10:07;13.07;;;3.70;;
60312;SDS011;46158;52.850;6.970;2023-07-02T11:12:42;16.35;;;3.90;;
60312;SDS011;46158;52.850;6.970;2023-07-02T11:15:13;13.32;;;3.97;;
60312;SDS011;46158;52.850;6.970;2023-07-02T11:17:48;15.50;;;4.20;;
60312;SDS011;46158;52.850;6.970;2023-07-02T11:20:14;15.35;;;4.10;;
60312;SDS011;46158;52.850;6.970;2023-07-02T11:22:42;16.38;;;4.13;;
60312;SDS011;46158;52.850;6.970;2023-07-02T11:25:16;17.13;;;4.20;;
60312;SDS011;46158;52.850;6.970;2023-07-02T11:27:46;14.02;;;3.97;;
60312;SDS011;46158;52.850;6.970;2023-07-02T11:32:52;14.85;;;3.95;;
60312;SDS011;46158;52.850;6.970;2023-07-02T11:35:33;12.13;;;3.72;;
60312;SDS011;46158;52.850;6.970;2023-07-02T11:38:00;13.32;;;4.03;;
60312;SDS011;46158;52.850;6.970;2023-07-02T11:40:29;12.13;;;3.40;;
60312;SDS011;46158;52.850;6.970;2023-07-02T11:42:55;12.63;;;3.58;;
60312;SDS011;46158;52.850;6.970;2023-07-02T11:45:20;13.45;;;3.60;;
60312;SDS011;46158;52.850;6.970;2023-07-02T11:47:54;14.88;;;3.88;;
60312;SDS011;46158;52.850;6.970;2023-07-02T11:50:22;15.60;;;3.85;;
60312;SDS011;46158;52.850;6.970;2023-07-02T11:52:51;15.55;;;4.00;;
60312;SDS011;46158;52.850;6.970;2023-07-02T11:55:17;14.43;;;3.97;;
60312;SDS011;46158;52.850;6.970;2023-07-02T11:57:45;14.85;;;3.92;;
60312;SDS011;46158;52.850;6.970;2023-07-02T12:00:20;12.98;;;3.42;;
60312;SDS011;46158;52.850;6.970;2023-07-02T12:02:55;14.02;;;3.88;;
60312;SDS011;46158;52.850;6.970;2023-07-02T12:05:30;13.68;;;4.07;;
60312;SDS011;46158;52.850;6.970;2023-07-02T12:07:56;10.57;;;3.40;;
60312;SDS011;46158;52.850;6.970;2023-07-02T12:12:52;17.35;;;5.35;;
60312;SDS011;46158;52.850;6.970;2023-07-02T12:15:18;29.83;;;18.05;;
60312;SDS011;46158;52.850;6.970;2023-07-02T12:17:50;47.53;;;35.05;;
60312;SDS011;46158;52.850;6.970;2023-07-02T12:20:19;55.15;;;43.15;;
60312;SDS011;46158;52.850;6.970;2023-07-02T12:22:48;64.32;;;50.75;;
60312;SDS011;46158;52.850;6.970;2023-07-02T12:25:14;81.25;;;64.35;;
60312;SDS011;46158;52.850;6.970;2023-07-02T12:27:40;74.80;;;59.60;;
60312;SDS011;46158;52.850;6.970;2023-07-02T12:30:06;81.03;;;63.08;;
60312;SDS011;46158;52.850;6.970;2023-07-02T12:32:33;79.80;;;63.28;;
60312;SDS011;46158;52.850;6.970;2023-07-02T12:34:59;80.65;;;65.25;;
60312;SDS011;46158;52.850;6.970;2023-07-02T12:37:29;82.38;;;66.22;;
60312;SDS011;46158;52.850;6.970;2023-07-02T12:39:55;83.85;;;66.90;;
60312;SDS011;46158;52.850;6.970;2023-07-02T12:42:20;83.20;;;68.18;;
60312;SDS011;46158;52.850;6.970;2023-07-02T12:44:46;84.85;;;67.70;;
60312;SDS011;46158;52.850;6.970;2023-07-02T12:47:12;77.35;;;61.28;;
60312;SDS011;46158;52.850;6.970;2023-07-02T12:49:59;76.32;;;60.22;;
60312;SDS011;46158;52.850;6.970;2023-07-02T12:52:31;76.03;;;60.17;;
60312;SDS011;46158;52.850;6.970;2023-07-02T12:54:59;74.28;;;59.00;;
60312;SDS011;46158;52.850;6.970;2023-07-02T12:57:28;70.18;;;54.75;;
60312;SDS011;46158;52.850;6.970;2023-07-02T12:59:57;73.28;;;58.20;;
60312;SDS011;46158;52.850;6.970;2023-07-02T13:02:24;72.25;;;56.45;;
60312;SDS011;46158;52.850;6.970;2023-07-02T13:04:50;70.55;;;55.55;;
60312;SDS011;46158;52.850;6.970;2023-07-02T13:07:16;66.65;;;53.03;;
60312;SDS011;46158;52.850;6.970;2023-07-02T13:09:42;65.65;;;50.60;;
60312;SDS011;46158;52.850;6.970;2023-07-02T13:12:09;66.97;;;52.03;;
60312;SDS011;46158;52.850;6.970;2023-07-02T13:14:36;60.38;;;49.17;;
60312;SDS011;46158;52.850;6.970;2023-07-02T13:17:02;61.78;;;48.97;;
60312;SDS011;46158;52.850;6.970;2023-07-02T13:19:32;62.38;;;48.45;;
60312;SDS011;46158;52.850;6.970;2023-07-02T13:22:07;60.08;;;47.47;;
60312;SDS011;46158;52.850;6.970;2023-07-02T13:24:33;57.80;;;45.65;;
60312;SDS011;46158;52.850;6.970;2023-07-02T13:27:18;56.88;;;44.45;;
60312;SDS011;46158;52.850;6.970;2023-07-02T13:29:50;59.20;;;44.17;;
60312;SDS011;46158;52.850;6.970;2023-07-02T13:32:21;57.28;;;43.42;;
60312;SDS011;46158;52.850;6.970;2023-07-02T13:34:49;55.72;;;42.25;;
60312;SDS011;46158;52.850;6.970;2023-07-02T13:37:15;52.72;;;40.45;;
60312;SDS011;46158;52.850;6.970;2023-07-02T13:39:48;49.72;;;37.88;;
60312;SDS011;46158;52.850;6.970;2023-07-02T13:42:18;51.65;;;37.88;;
60312;SDS011;46158;52.850;6.970;2023-07-02T13:44:47;51.00;;;38.23;;
60312;SDS011;46158;52.850;6.970;2023-07-02T13:47:12;50.80;;;37.40;;
60312;SDS011;46158;52.850;6.970;2023-07-02T13:49:42;45.70;;;33.45;;
60312;SDS011;46158;52.850;6.970;2023-07-02T13:52:11;46.47;;;35.60;;
60312;SDS011;46158;52.850;6.970;2023-07-02T13:54:37;45.55;;;33.58;;
60312;SDS011;46158;52.850;6.970;2023-07-02T13:57:06;47.08;;;33.50;;
60312;SDS011;46158;52.850;6.970;2023-07-02T13:59:36;45.92;;;35.25;;
60312;SDS011;46158;52.850;6.970;2023-07-02T14:02:08;43.28;;;32.75;;
60312;SDS011;46158;52.850;6.970;2023-07-02T14:04:50;43.50;;;31.08;;
60312;SDS011;46158;52.850;6.970;2023-07-02T14:07:19;42.00;;;30.30;;
60312;SDS011;46158;52.850;6.970;2023-07-02T14:09:48;42.28;;;29.80;;
60312;SDS011;46158;52.850;6.970;2023-07-02T14:12:23;40.40;;;28.42;;
60312;SDS011;46158;52.850;6.970;2023-07-02T14:14:49;40.42;;;28.17;;
60312;SDS011;46158;52.850;6.970;2023-07-02T14:17:15;41.45;;;27.55;;
60312;SDS011;46158;52.850;6.970;2023-07-02T14:19:43;39.63;;;26.58;;
60312;SDS011;46158;52.850;6.970;2023-07-02T14:22:12;37.50;;;24.42;;
60312;SDS011;46158;52.850;6.970;2023-07-02T14:24:40;36.17;;;24.33;;
60312;SDS011;46158;52.850;6.970;2023-07-02T14:27:06;37.33;;;24.10;;
60312;SDS011;46158;52.850;6.970;2023-07-02T14:29:39;34.70;;;23.02;;
60312;SDS011;46158;52.850;6.970;2023-07-02T14:32:05;36.13;;;23.45;;
60312;SDS011;46158;52.850;6.970;2023-07-02T14:34:31;35.42;;;22.25;;
60312;SDS011;46158;52.850;6.970;2023-07-02T14:36:58;34.30;;;21.90;;
60312;SDS011;46158;52.850;6.970;2023-07-02T14:39:30;34.30;;;21.42;;
60312;SDS011;46158;52.850;6.970;2023-07-02T14:41:56;34.30;;;21.55;;
60312;SDS011;46158;52.850;6.970;2023-07-02T14:44:22;34.40;;;21.10;;
60312;SDS011;46158;52.850;6.970;2023-07-02T14:46:57;33.05;;;21.63;;
60312;SDS011;46158;52.850;6.970;2023-07-02T14:49:26;35.13;;;20.85;;
60312;SDS011;46158;52.850;6.970;2023-07-02T14:51:58;33.10;;;20.35;;
60312;SDS011;46158;52.850;6.970;2023-07-02T14:54:24;32.38;;;20.15;;
60312;SDS011;46158;52.850;6.970;2023-07-02T14:56:52;33.40;;;19.00;;
60312;SDS011;46158;52.850;6.970;2023-07-02T14:59:18;30.63;;;18.15;;
60312;SDS011;46158;52.850;6.970;2023-07-02T15:01:55;32.20;;;18.65;;
60312;SDS011;46158;52.850;6.970;2023-07-02T15:04:30;31.98;;;18.75;;
60312;SDS011;46158;52.850;6.970;2023-07-02T15:06:59;31.27;;;18.00;;
60312;SDS011;46158;52.850;6.970;2023-07-02T15:09:28;29.48;;;17.10;;
60312;SDS011;46158;52.850;6.970;2023-07-02T15:12:00;31.13;;;17.42;;
60312;SDS011;46158;52.850;6.970;2023-07-02T15:14:26;30.35;;;17.10;;